createdAt,value
2023-05-13T00:00:44.177Z,6.77
2023-05-13T00:03:10.965Z,6.53
2023-05-13T00:05:37.995Z,6.60
2023-05-13T00:08:07.418Z,5.63
2023-05-13T00:10:35.071Z,5.57
2023-05-13T00:13:02.406Z,6.40
2023-05-13T00:15:29.417Z,5.87
2023-05-13T00:17:56.437Z,5.47
2023-05-13T00:20:23.522Z,5.97
2023-05-13T00:22:50.419Z,5.17
2023-05-13T00:25:19.092Z,5.83
2023-05-13T00:27:45.775Z,5.80
2023-05-13T00:30:12.744Z,5.70
2023-05-13T00:32:39.442Z,5.17
2023-05-13T00:35:06.490Z,5.30
2023-05-13T00:37:33.178Z,5.20
2023-05-13T00:39:59.882Z,4.93
2023-05-13T00:42:26.562Z,4.77
2023-05-13T00:44:53.251Z,4.50
2023-05-13T00:47:20.068Z,4.93
2023-05-13T00:49:47.095Z,5.13
2023-05-13T00:52:14.046Z,4.47
2023-05-13T00:54:40.878Z,3.90
2023-05-13T00:57:07.893Z,3.90
2023-05-13T00:59:34.640Z,3.97
2023-05-13T01:02:18.379Z,4.03
2023-05-13T01:05:26.767Z,3.80
2023-05-13T01:08:03.604Z,4.27
2023-05-13T01:10:41.980Z,4.03
2023-05-13T01:13:13.224Z,4.03
2023-05-13T01:15:53.231Z,4.07
2023-05-13T01:18:24.606Z,3.83
2023-05-13T01:20:51.315Z,3.67
2023-05-13T01:23:18.114Z,4.00
2023-05-13T01:25:45.308Z,3.80
2023-05-13T01:28:12.233Z,3.80
2023-05-13T01:30:39.529Z,3.70
2023-05-13T01:33:06.905Z,3.80
2023-05-13T01:35:34.398Z,3.87
2023-05-13T01:38:03.455Z,3.87
2023-05-13T01:40:33.144Z,3.93
2023-05-13T01:43:00.862Z,4.13
2023-05-13T01:45:32.254Z,3.63
2023-05-13T01:47:59.527Z,4.00
2023-05-13T01:50:26.525Z,4.23
2023-05-13T01:52:53.363Z,3.97
2023-05-13T01:55:20.134Z,3.70
2023-05-13T01:57:46.796Z,3.87
2023-05-13T02:00:14.070Z,3.63
2023-05-13T02:02:40.873Z,4.00
2023-05-13T02:05:08.030Z,3.90
2023-05-13T02:07:34.746Z,3.97
2023-05-13T02:10:01.511Z,3.57
2023-05-13T02:12:28.861Z,3.80
2023-05-13T02:14:55.775Z,3.77
2023-05-13T02:17:22.643Z,4.00
2023-05-13T02:19:49.679Z,4.23
2023-05-13T02:22:16.588Z,4.20
2023-05-13T02:24:43.398Z,4.33
2023-05-13T02:27:12.677Z,4.37
2023-05-13T02:29:39.397Z,4.30
2023-05-13T02:32:06.557Z,4.40
2023-05-13T02:34:33.312Z,4.87
2023-05-13T02:37:00.020Z,3.83
2023-05-13T02:39:26.971Z,4.70
2023-05-13T02:41:53.659Z,4.00
2023-05-13T02:44:20.326Z,4.07
2023-05-13T02:46:47.096Z,4.13
2023-05-13T02:49:14.123Z,3.70
2023-05-13T02:51:40.877Z,3.80
2023-05-13T02:54:07.620Z,4.63
2023-05-13T02:56:34.325Z,4.20
2023-05-13T02:59:01.012Z,3.50
2023-05-13T03:01:27.845Z,4.37
2023-05-13T03:03:54.621Z,4.60
2023-05-13T03:06:21.331Z,4.27
2023-05-13T03:08:48.039Z,4.50
2023-05-13T03:11:14.724Z,8.30
2023-05-13T03:13:41.525Z,5.20
2023-05-13T03:16:08.331Z,5.47
2023-05-13T03:18:35.896Z,4.67
2023-05-13T03:21:03.010Z,4.47
2023-05-13T03:23:29.841Z,4.63
2023-05-13T03:25:56.540Z,4.80
2023-05-13T03:28:23.221Z,4.97
2023-05-13T03:30:50.909Z,4.70
2023-05-13T03:33:17.713Z,6.03
2023-05-13T03:35:44.400Z,5.00
2023-05-13T03:38:11.121Z,5.00
2023-05-13T03:40:37.854Z,4.70
2023-05-13T03:43:04.798Z,4.30
2023-05-13T03:45:31.500Z,4.77
2023-05-13T03:47:58.437Z,4.83
2023-05-13T03:50:25.231Z,5.23
2023-05-13T03:52:51.989Z,4.80
2023-05-13T03:55:18.742Z,4.67
2023-05-13T03:57:48.289Z,5.00
2023-05-13T04:00:15.960Z,4.83
2023-05-13T04:02:42.832Z,5.40
2023-05-13T04:05:09.867Z,4.90
2023-05-13T04:07:36.666Z,5.10
2023-05-13T04:10:03.549Z,5.90
2023-05-13T04:12:30.984Z,6.70
2023-05-13T04:14:57.710Z,5.90
2023-05-13T04:17:24.459Z,5.30
2023-05-13T04:19:54.797Z,4.87
2023-05-13T04:22:22.015Z,4.47
2023-05-13T04:24:52.080Z,6.63
2023-05-13T04:27:18.909Z,5.53
2023-05-13T04:29:45.921Z,4.07
2023-05-13T04:32:16.076Z,4.03
2023-05-13T04:34:42.948Z,4.50
2023-05-13T04:37:09.612Z,4.73
2023-05-13T04:39:36.395Z,4.20
2023-05-13T04:42:03.187Z,4.43
2023-05-13T04:44:29.866Z,4.80
2023-05-13T04:46:56.563Z,4.93
2023-05-13T04:49:23.225Z,4.40
2023-05-13T04:51:50.598Z,4.43
2023-05-13T04:54:17.774Z,4.83
2023-05-13T04:56:44.508Z,4.63
2023-05-13T04:59:11.289Z,5.37
2023-05-13T05:01:37.999Z,4.70
2023-05-13T05:04:05.910Z,4.73
2023-05-13T05:06:32.730Z,4.97
2023-05-13T05:08:59.618Z,4.80
2023-05-13T05:11:26.389Z,4.60
2023-05-13T05:13:53.066Z,4.50
2023-05-13T05:16:19.782Z,5.93
2023-05-13T05:18:46.600Z,5.03
2023-05-13T05:21:13.556Z,4.83
2023-05-13T05:23:40.342Z,4.90
2023-05-13T05:26:11.597Z,5.20
2023-05-13T05:28:40.127Z,4.60
2023-05-13T05:31:07.259Z,4.90
2023-05-13T05:33:34.091Z,4.67
2023-05-13T05:36:00.817Z,4.37
2023-05-13T05:38:27.655Z,4.67
2023-05-13T05:40:54.414Z,4.17
2023-05-13T05:43:21.240Z,4.53
2023-05-13T05:45:47.944Z,4.40
2023-05-13T05:48:14.700Z,4.03
2023-05-13T05:50:41.639Z,4.30
2023-05-13T05:53:08.321Z,4.07
2023-05-13T05:55:35.808Z,4.07
2023-05-13T05:58:06.458Z,4.20
2023-05-13T06:00:33.433Z,4.70
2023-05-13T06:03:00.210Z,4.07
2023-05-13T06:05:27.375Z,4.70
2023-05-13T06:07:54.078Z,4.80
2023-05-13T06:10:21.182Z,4.63
2023-05-13T06:12:48.236Z,4.20
2023-05-13T06:15:14.940Z,4.27
2023-05-13T06:17:41.970Z,4.60
2023-05-13T06:20:09.078Z,4.03
2023-05-13T06:22:35.846Z,3.90
2023-05-13T06:25:02.567Z,3.80
2023-05-13T06:27:29.240Z,3.30
2023-05-13T06:29:55.965Z,3.50
2023-05-13T06:32:22.721Z,3.30
2023-05-13T06:34:52.947Z,3.53
2023-05-13T06:37:20.942Z,3.40
2023-05-13T06:39:47.613Z,3.47
2023-05-13T06:42:14.537Z,3.00
2023-05-13T06:44:41.217Z,3.30
2023-05-13T06:47:10.301Z,3.97
2023-05-13T06:49:37.154Z,2.93
2023-05-13T06:52:04.029Z,3.20
2023-05-13T06:54:30.725Z,3.22
2023-05-13T06:56:57.396Z,4.57
2023-05-13T06:59:24.113Z,3.15
2023-05-13T07:01:50.825Z,3.10
2023-05-13T07:04:17.635Z,3.00
2023-05-13T07:06:44.506Z,2.88
2023-05-13T07:09:11.326Z,2.85
2023-05-13T07:11:38.207Z,2.85
2023-05-13T07:14:04.903Z,3.00
2023-05-13T07:16:31.726Z,2.58
2023-05-13T07:18:58.630Z,2.80
2023-05-13T07:21:25.722Z,2.60
2023-05-13T07:23:52.470Z,2.67
2023-05-13T07:26:19.255Z,2.80
2023-05-13T07:28:45.959Z,2.35
2023-05-13T07:31:12.892Z,2.40
2023-05-13T07:33:39.739Z,2.50
2023-05-13T07:36:06.848Z,2.50
2023-05-13T07:38:34.151Z,2.45
2023-05-13T07:41:00.915Z,1.92
2023-05-13T07:43:28.009Z,2.22
2023-05-13T07:45:55.443Z,2.63
2023-05-13T07:48:24.530Z,2.20
2023-05-13T07:50:51.363Z,2.50
2023-05-13T07:53:19.805Z,2.47
2023-05-13T07:55:46.737Z,2.00
2023-05-13T07:58:13.492Z,2.55
2023-05-13T08:00:40.428Z,2.40
2023-05-13T08:03:07.300Z,2.20
2023-05-13T08:05:34.486Z,2.15
2023-05-13T08:08:01.855Z,1.90
2023-05-13T08:10:28.716Z,2.40
2023-05-13T08:12:57.755Z,2.20
2023-05-13T08:15:26.538Z,2.40
2023-05-13T08:17:53.826Z,2.60
2023-05-13T08:20:21.260Z,2.35
2023-05-13T08:22:48.139Z,2.40
2023-05-13T08:25:16.054Z,2.28
2023-05-13T08:27:42.891Z,2.47
2023-05-13T08:30:09.823Z,2.42
2023-05-13T08:32:36.863Z,2.42
2023-05-13T08:35:03.727Z,2.10
2023-05-13T08:37:30.384Z,2.33
2023-05-13T08:40:02.232Z,2.30
2023-05-13T08:42:31.951Z,3.13
2023-05-13T08:44:59.212Z,3.03
2023-05-13T08:47:36.962Z,2.00
2023-05-13T08:50:04.251Z,2.97
2023-05-13T08:52:31.882Z,3.42
2023-05-13T08:55:00.837Z,3.13
2023-05-13T08:57:28.069Z,4.45
2023-05-13T08:59:54.761Z,1.90
2023-05-13T09:02:21.885Z,3.60
2023-05-13T09:04:53.154Z,3.65
2023-05-13T09:07:20.019Z,3.08
2023-05-13T09:09:47.230Z,2.13
2023-05-13T09:12:43.069Z,2.20
2023-05-13T09:15:11.575Z,1.92
2023-05-13T09:17:40.706Z,1.90
2023-05-13T09:20:09.147Z,2.30
2023-05-13T09:22:35.799Z,2.00
2023-05-13T09:25:02.565Z,2.25
2023-05-13T09:27:41.941Z,2.22
2023-05-13T09:30:09.747Z,2.25
2023-05-13T09:32:36.671Z,1.80
2023-05-13T09:35:16.890Z,2.25
2023-05-13T09:37:46.188Z,2.00
2023-05-13T09:40:15.088Z,2.67
2023-05-13T09:42:46.050Z,3.35
2023-05-13T09:45:14.781Z,2.50
2023-05-13T09:47:42.400Z,2.72
2023-05-13T09:50:11.603Z,2.90
2023-05-13T09:52:39.063Z,2.40
2023-05-13T09:55:09.680Z,2.10
2023-05-13T09:57:37.959Z,2.20
2023-05-13T10:00:06.173Z,2.13
2023-05-13T10:02:34.387Z,2.15
2023-05-13T10:05:02.321Z,2.35
2023-05-13T10:07:29.796Z,2.42
2023-05-13T10:10:00.703Z,2.83
2023-05-13T10:12:28.509Z,2.30
2023-05-13T10:14:55.936Z,2.40
2023-05-13T10:17:25.285Z,1.95
2023-05-13T10:19:53.729Z,2.70
2023-05-13T10:22:32.177Z,2.33
2023-05-13T10:25:00.114Z,2.60
2023-05-13T10:27:32.672Z,2.22
2023-05-13T10:30:03.493Z,3.70
2023-05-13T10:32:31.589Z,2.50
2023-05-13T10:35:06.512Z,2.28
2023-05-13T10:38:11.313Z,1.60
2023-05-13T10:40:56.835Z,1.42
2023-05-13T10:43:30.935Z,1.40
2023-05-13T10:46:02.972Z,1.55
2023-05-13T10:48:48.620Z,1.25
2023-05-13T10:51:17.275Z,1.40
2023-05-13T10:53:49.382Z,1.30
2023-05-13T10:56:21.890Z,1.30
2023-05-13T10:59:00.495Z,1.20
2023-05-13T11:01:29.818Z,1.20
2023-05-13T11:04:01.987Z,1.40
2023-05-13T11:06:30.361Z,1.33
2023-05-13T11:08:57.215Z,1.10
2023-05-13T11:11:26.496Z,1.10
2023-05-13T11:13:55.878Z,1.08
2023-05-13T11:16:24.149Z,1.20
2023-05-13T11:18:52.831Z,1.10
2023-05-13T11:21:31.167Z,1.02
2023-05-13T11:24:08.210Z,1.00
2023-05-13T11:26:51.572Z,1.15
2023-05-13T11:29:49.334Z,1.10
2023-05-13T11:32:36.104Z,1.15
2023-05-13T11:35:04.257Z,1.02
2023-05-13T11:37:32.518Z,1.00
2023-05-13T11:40:00.756Z,1.20
2023-05-13T11:42:28.654Z,1.23
2023-05-13T11:44:55.500Z,1.23
2023-05-13T11:47:28.385Z,1.10
2023-05-13T11:49:55.880Z,0.82
2023-05-13T11:52:22.663Z,1.10
2023-05-13T11:54:54.344Z,1.00
2023-05-13T11:57:22.214Z,1.13
2023-05-13T12:00:02.312Z,1.00
2023-05-13T12:02:31.966Z,0.88
2023-05-13T12:05:04.806Z,0.90
2023-05-13T12:07:32.580Z,1.00
2023-05-13T12:10:01.695Z,1.00
2023-05-13T12:12:30.993Z,0.90
2023-05-13T12:15:01.917Z,0.70
2023-05-13T12:17:29.040Z,0.98
2023-05-13T12:20:14.756Z,0.80
2023-05-13T12:22:44.388Z,0.90
2023-05-13T12:25:43.193Z,0.85
2023-05-13T12:28:16.385Z,1.17
2023-05-13T12:31:03.685Z,1.08
2023-05-13T12:33:41.242Z,1.25
2023-05-13T12:36:21.733Z,1.23
2023-05-13T12:39:04.173Z,1.00
2023-05-13T12:41:41.542Z,1.20
2023-05-13T12:44:10.383Z,1.05
2023-05-13T12:46:38.032Z,1.30
2023-05-13T12:49:06.154Z,1.15
2023-05-13T12:51:34.236Z,1.25
2023-05-13T12:54:01.795Z,0.90
2023-05-13T12:56:28.642Z,0.90
2023-05-13T12:58:55.913Z,0.90
2023-05-13T13:01:22.912Z,0.80
2023-05-13T13:03:49.860Z,0.88
2023-05-13T13:06:17.832Z,1.02
2023-05-13T13:08:44.712Z,0.80
2023-05-13T13:11:14.992Z,0.85
2023-05-13T13:13:41.725Z,1.00
2023-05-13T13:16:09.465Z,1.10
2023-05-13T13:18:36.408Z,1.10
2023-05-13T13:21:05.256Z,1.30
2023-05-13T13:23:32.168Z,1.10
2023-05-13T13:25:59.337Z,1.00
2023-05-13T13:28:26.953Z,2.10
2023-05-13T13:30:54.334Z,1.60
2023-05-13T13:33:21.225Z,1.40
2023-05-13T13:35:49.515Z,1.25
2023-05-13T13:38:16.237Z,1.20
2023-05-13T13:40:44.654Z,1.30
2023-05-13T13:43:11.419Z,1.40
2023-05-13T13:45:38.762Z,1.40
2023-05-13T13:48:06.029Z,1.45
2023-05-13T13:50:34.099Z,1.40
2023-05-13T13:53:00.857Z,1.33
2023-05-13T13:55:27.560Z,1.15
2023-05-13T13:57:54.351Z,1.15
2023-05-13T14:00:21.463Z,1.20
2023-05-13T14:02:48.739Z,1.38
2023-05-13T14:05:16.081Z,1.20
2023-05-13T14:07:42.805Z,1.40
2023-05-13T14:10:10.310Z,1.50
2023-05-13T14:12:38.016Z,1.77
2023-05-13T14:15:05.391Z,1.60
2023-05-13T14:17:33.035Z,1.50
2023-05-13T14:19:59.929Z,1.88
2023-05-13T14:22:26.616Z,1.88
2023-05-13T14:24:53.530Z,1.52
2023-05-13T14:27:21.723Z,1.42
2023-05-13T14:29:49.172Z,1.50
2023-05-13T14:32:16.462Z,1.30
2023-05-13T14:34:44.899Z,1.50
2023-05-13T14:37:12.051Z,1.45
2023-05-13T14:39:38.890Z,1.63
2023-05-13T14:42:06.201Z,1.75
2023-05-13T14:44:32.924Z,1.40
2023-05-13T14:46:59.917Z,1.55
2023-05-13T14:49:26.778Z,1.23
2023-05-13T14:51:53.550Z,1.70
2023-05-13T14:54:20.224Z,1.38
2023-05-13T14:56:47.016Z,1.45
2023-05-13T14:59:13.726Z,1.30
2023-05-13T15:01:40.606Z,1.27
2023-05-13T15:04:07.334Z,1.40
2023-05-13T15:06:39.061Z,1.80
2023-05-13T15:09:07.110Z,1.75
2023-05-13T15:11:33.975Z,1.77
2023-05-13T15:14:01.886Z,1.65
2023-05-13T15:16:28.710Z,1.70
2023-05-13T15:18:55.565Z,2.00
2023-05-13T15:21:22.381Z,1.67
2023-05-13T15:23:49.141Z,1.50
2023-05-13T15:26:15.942Z,1.77
2023-05-13T15:28:42.689Z,1.55
2023-05-13T15:31:09.421Z,1.50
2023-05-13T15:33:36.222Z,1.73
2023-05-13T15:36:03.337Z,1.67
2023-05-13T15:38:30.625Z,1.73
2023-05-13T15:40:57.340Z,1.80
2023-05-13T15:43:24.011Z,1.80
2023-05-13T15:45:50.945Z,1.63
2023-05-13T15:48:18.163Z,1.60
2023-05-13T15:50:44.915Z,1.63
2023-05-13T15:53:11.746Z,1.65
2023-05-13T15:55:39.544Z,1.50
2023-05-13T15:58:07.066Z,2.35
2023-05-13T16:00:34.197Z,2.10
2023-05-13T16:03:01.522Z,1.55
2023-05-13T16:05:28.913Z,1.67
2023-05-13T16:07:57.145Z,1.85
2023-05-13T16:10:24.378Z,1.60
2023-05-13T16:12:51.585Z,1.60
2023-05-13T16:15:18.415Z,1.58
2023-05-13T16:17:45.311Z,1.70
2023-05-13T16:20:13.335Z,2.00
2023-05-13T16:22:40.455Z,1.90
2023-05-13T16:25:08.954Z,1.45
2023-05-13T16:27:36.940Z,1.73
2023-05-13T16:30:06.581Z,1.70
2023-05-13T16:32:34.795Z,1.75
2023-05-13T16:35:02.725Z,1.55
2023-05-13T16:37:31.295Z,1.48
2023-05-13T16:39:58.120Z,1.65
2023-05-13T16:42:25.441Z,2.17
2023-05-13T16:44:52.220Z,1.48
2023-05-13T16:47:19.015Z,1.63
2023-05-13T16:49:45.798Z,1.60
2023-05-13T16:52:12.600Z,1.95
2023-05-13T16:54:39.415Z,2.03
2023-05-13T16:57:06.311Z,1.40
2023-05-13T16:59:33.358Z,1.67
2023-05-13T17:02:00.303Z,1.70
2023-05-13T17:04:28.365Z,1.90
2023-05-13T17:06:58.299Z,1.73
2023-05-13T17:09:26.231Z,2.08
2023-05-13T17:11:54.481Z,1.83
2023-05-13T17:14:21.765Z,1.80
2023-05-13T17:16:48.980Z,2.22
2023-05-13T17:19:16.071Z,2.28
2023-05-13T17:21:43.019Z,1.98
2023-05-13T17:24:09.774Z,2.13
2023-05-13T17:26:38.662Z,2.17
2023-05-13T17:29:06.044Z,2.00
2023-05-13T17:31:33.679Z,2.35
2023-05-13T17:34:00.568Z,2.50
2023-05-13T17:36:27.262Z,2.40
2023-05-13T17:38:54.289Z,2.75
2023-05-13T17:41:21.745Z,2.60
2023-05-13T17:43:48.582Z,2.17
2023-05-13T17:46:15.316Z,2.35
2023-05-13T17:48:42.620Z,2.30
2023-05-13T17:51:09.507Z,2.40
2023-05-13T17:53:36.319Z,2.60
2023-05-13T17:56:03.672Z,2.70
2023-05-13T17:58:30.607Z,2.22
2023-05-13T18:00:57.425Z,3.13
2023-05-13T18:03:24.246Z,3.40
2023-05-13T18:05:51.266Z,2.65
2023-05-13T18:08:19.109Z,2.50
2023-05-13T18:10:46.739Z,2.20
2023-05-13T18:13:13.852Z,2.40
2023-05-13T18:15:40.814Z,2.67
2023-05-13T18:18:07.695Z,3.10
2023-05-13T18:20:34.567Z,2.95
2023-05-13T18:23:01.545Z,2.38
2023-05-13T18:25:28.382Z,2.90
2023-05-13T18:27:55.272Z,3.10
2023-05-13T18:30:22.379Z,3.40
2023-05-13T18:32:50.772Z,3.90
2023-05-13T18:35:19.930Z,3.88
2023-05-13T18:37:47.117Z,3.70
2023-05-13T18:40:14.009Z,4.10
2023-05-13T18:42:40.758Z,4.13
2023-05-13T18:45:08.133Z,4.00
2023-05-13T18:47:34.965Z,4.30
2023-05-13T18:50:01.996Z,3.87
2023-05-13T18:52:28.843Z,3.80
2023-05-13T18:54:55.516Z,3.80
2023-05-13T18:57:23.798Z,4.40
2023-05-13T18:59:50.884Z,3.77
2023-05-13T19:02:17.906Z,3.87
2023-05-13T19:04:44.697Z,3.93
2023-05-13T19:07:11.481Z,4.33
2023-05-13T19:09:38.143Z,4.80
2023-05-13T19:12:05.107Z,5.00
2023-05-13T19:14:31.907Z,5.67
2023-05-13T19:16:58.804Z,4.80
2023-05-13T19:19:25.778Z,4.10
2023-05-13T19:21:52.544Z,4.00
2023-05-13T19:24:20.561Z,4.33
2023-05-13T19:26:47.435Z,4.27
2023-05-13T19:29:14.232Z,4.00
2023-05-13T19:31:40.993Z,4.87
2023-05-13T19:34:07.955Z,5.70
2023-05-13T19:36:34.844Z,9.87
2023-05-13T19:39:01.584Z,10.63
2023-05-13T19:41:28.321Z,9.67
2023-05-13T19:43:55.009Z,9.03
2023-05-13T19:46:21.920Z,6.60
2023-05-13T19:48:48.900Z,4.93
2023-05-13T19:51:15.773Z,5.83
2023-05-13T19:53:42.529Z,5.20
2023-05-13T19:56:09.274Z,5.70
2023-05-13T19:58:36.985Z,6.83
2023-05-13T20:01:05.144Z,7.27
2023-05-13T20:03:32.611Z,7.80
2023-05-13T20:05:59.489Z,7.20
2023-05-13T20:08:27.346Z,6.77
2023-05-13T20:10:55.202Z,7.40
2023-05-13T20:13:22.071Z,6.73
2023-05-13T20:15:48.810Z,6.87
2023-05-13T20:18:16.113Z,6.87
2023-05-13T20:20:42.940Z,6.60
2023-05-13T20:23:09.949Z,6.57
2023-05-13T20:25:36.904Z,6.63
2023-05-13T20:28:03.715Z,6.80
2023-05-13T20:30:30.480Z,6.37
2023-05-13T20:32:57.264Z,6.70
2023-05-13T20:35:24.127Z,6.20
2023-05-13T20:37:50.898Z,7.17
2023-05-13T20:40:17.620Z,10.07
2023-05-13T20:42:45.752Z,10.60
2023-05-13T20:45:12.774Z,9.27
2023-05-13T20:47:39.450Z,8.17
2023-05-13T20:50:07.109Z,8.07
2023-05-13T20:52:33.901Z,7.40
2023-05-13T20:55:00.654Z,7.80
2023-05-13T20:57:27.521Z,6.90
2023-05-13T20:59:55.554Z,6.33
2023-05-13T21:02:22.347Z,6.07
2023-05-13T21:04:49.058Z,6.27
2023-05-13T21:07:16.049Z,5.43
2023-05-13T21:09:42.729Z,5.37
2023-05-13T21:12:09.517Z,5.67
2023-05-13T21:14:36.287Z,5.60
2023-05-13T21:17:03.550Z,5.53
2023-05-13T21:19:30.729Z,6.30
2023-05-13T21:21:58.485Z,6.57
2023-05-13T21:24:25.230Z,6.67
2023-05-13T21:26:52.187Z,6.87
2023-05-13T21:29:19.171Z,6.43
2023-05-13T21:31:46.957Z,6.67
2023-05-13T21:34:13.672Z,6.37
2023-05-13T21:36:40.467Z,6.20
2023-05-13T21:39:09.446Z,6.60
2023-05-13T21:41:36.412Z,6.60
2023-05-13T21:44:03.436Z,6.57
2023-05-13T21:46:30.278Z,6.80
2023-05-13T21:48:58.616Z,7.33
2023-05-13T21:51:25.504Z,7.50
2023-05-13T21:53:52.191Z,7.70
2023-05-13T21:56:18.910Z,7.90
2023-05-13T21:58:45.674Z,7.50
2023-05-13T22:01:12.550Z,7.70
2023-05-13T22:03:39.367Z,7.53
2023-05-13T22:06:06.320Z,7.40
2023-05-13T22:08:33.650Z,6.83
2023-05-13T22:11:01.369Z,6.77
2023-05-13T22:13:28.196Z,7.10
2023-05-13T22:15:55.329Z,6.60
2023-05-13T22:18:23.495Z,6.47
2023-05-13T22:20:51.260Z,6.87
2023-05-13T22:23:18.046Z,6.27
2023-05-13T22:25:45.954Z,6.87
2023-05-13T22:28:13.098Z,6.27
2023-05-13T22:30:39.902Z,6.83
2023-05-13T22:33:06.670Z,7.20
2023-05-13T22:35:36.420Z,6.40
2023-05-13T22:38:04.273Z,7.17
2023-05-13T22:40:31.149Z,7.20
2023-05-13T22:42:57.949Z,6.60
2023-05-13T22:45:24.671Z,7.30
2023-05-13T22:47:51.487Z,6.83
2023-05-13T22:50:18.412Z,5.80
2023-05-13T22:52:45.114Z,6.60
2023-05-13T22:55:11.845Z,6.23
2023-05-13T22:57:38.527Z,6.73
2023-05-13T23:00:06.094Z,6.37
2023-05-13T23:02:32.893Z,6.80
2023-05-13T23:05:00.954Z,6.10
2023-05-13T23:07:28.242Z,6.40
2023-05-13T23:09:54.999Z,6.73
2023-05-13T23:12:22.332Z,6.50
2023-05-13T23:14:49.190Z,6.87
2023-05-13T23:17:15.986Z,6.97
2023-05-13T23:19:42.723Z,6.67
2023-05-13T23:22:09.479Z,7.10
2023-05-13T23:24:36.176Z,7.00
2023-05-13T23:27:03.832Z,7.53
2023-05-13T23:29:30.665Z,7.10
2023-05-13T23:31:57.412Z,6.80
2023-05-13T23:34:24.169Z,7.17
2023-05-13T23:36:50.879Z,7.20
2023-05-13T23:39:17.680Z,7.00
2023-05-13T23:41:44.411Z,7.40
2023-05-13T23:44:11.920Z,7.20
2023-05-13T23:46:40.639Z,7.13
2023-05-13T23:49:07.358Z,7.73
2023-05-13T23:51:34.052Z,7.70
2023-05-13T23:54:00.912Z,7.17
2023-05-13T23:56:27.855Z,7.67
2023-05-13T23:58:54.570Z,7.43
